sensor_id;sensor_type;location;lat;lon;timestamp;pressure;altitude;pressure_sealevel;temperature;humidity
76994;BME280;66749;47.406;18.822;2023-06-26T00:00:27;100261.31;;;17.82;76.81
76994;BME280;66749;47.406;18.822;2023-06-26T00:00:59;100269.53;;;17.79;77.07
76994;BME280;66749;47.406;18.822;2023-06-26T00:01:31;100266.06;;;17.78;76.60
76994;BME280;66749;47.406;18.822;2023-06-26T00:02:03;100270.63;;;17.76;76.54
76994;BME280;66749;47.406;18.822;2023-06-26T00:02:35;100268.69;;;17.78;76.61
76994;BME280;66749;47.406;18.822;2023-06-26T00:03:07;100267.56;;;17.81;76.69
76994;BME280;66749;47.406;18.822;2023-06-26T00:03:39;100269.25;;;17.82;76.49
76994;BME280;66749;47.406;18.822;2023-06-26T00:04:11;100269.66;;;17.77;76.43
76994;BME280;66749;47.406;18.822;2023-06-26T00:04:46;100268.00;;;17.76;76.80
76994;BME280;66749;47.406;18.822;2023-06-26T00:05:18;100273.38;;;17.74;76.96
76994;BME280;66749;47.406;18.822;2023-06-26T00:05:50;100274.22;;;17.75;76.89
76994;BME280;66749;47.406;18.822;2023-06-26T00:06:22;100262.84;;;17.74;76.61
76994;BME280;66749;47.406;18.822;2023-06-26T00:06:56;100265.47;;;17.74;76.82
76994;BME280;66749;47.406;18.822;2023-06-26T00:07:29;100267.28;;;17.74;76.79
76994;BME280;66749;47.406;18.822;2023-06-26T00:08:02;100269.09;;;17.73;76.99
76994;BME280;66749;47.406;18.822;2023-06-26T00:08:33;100264.78;;;17.72;76.72
76994;BME280;66749;47.406;18.822;2023-06-26T00:09:05;100269.38;;;17.70;76.56
76994;BME280;66749;47.406;18.822;2023-06-26T00:09:38;100267.66;;;17.69;76.61
76994;BME280;66749;47.406;18.822;2023-06-26T00:10:10;100265.28;;;17.66;76.67
76994;BME280;66749;47.406;18.822;2023-06-26T00:10:41;100275.59;;;17.69;76.62
76994;BME280;66749;47.406;18.822;2023-06-26T00:11:13;100265.44;;;17.65;76.83
76994;BME280;66749;47.406;18.822;2023-06-26T00:11:45;100268.91;;;17.65;76.78
76994;BME280;66749;47.406;18.822;2023-06-26T00:12:17;100270.56;;;17.66;76.81
76994;BME280;66749;47.406;18.822;2023-06-26T00:12:49;100268.06;;;17.65;76.75
76994;BME280;66749;47.406;18.822;2023-06-26T00:13:22;100268.06;;;17.65;77.27
76994;BME280;66749;47.406;18.822;2023-06-26T00:13:54;100268.91;;;17.65;76.74
76994;BME280;66749;47.406;18.822;2023-06-26T00:14:26;100267.78;;;17.68;76.87
76994;BME280;66749;47.406;18.822;2023-06-26T00:14:58;100267.78;;;17.68;76.71
76994;BME280;66749;47.406;18.822;2023-06-26T00:15:30;100269.47;;;17.69;76.73
76994;BME280;66749;47.406;18.822;2023-06-26T00:16:03;100266.94;;;17.67;76.70
76994;BME280;66749;47.406;18.822;2023-06-26T00:16:36;100263.38;;;17.68;76.73
76994;BME280;66749;47.406;18.822;2023-06-26T00:17:08;100264.44;;;17.66;76.66
76994;BME280;66749;47.406;18.822;2023-06-26T00:17:39;100273.06;;;17.68;76.54
76994;BME280;66749;47.406;18.822;2023-06-26T00:18:11;100267.78;;;17.68;76.74
76994;BME280;66749;47.406;18.822;2023-06-26T00:18:43;100270.56;;;17.66;76.81
76994;BME280;66749;47.406;18.822;2023-06-26T00:19:15;100265.28;;;17.66;76.21
76994;BME280;66749;47.406;18.822;2023-06-26T00:19:48;100267.91;;;17.66;77.07
76994;BME280;66749;47.406;18.822;2023-06-26T00:20:20;100264.31;;;17.67;76.70
76994;BME280;66749;47.406;18.822;2023-06-26T00:20:52;100260.00;;;17.66;76.80
76994;BME280;66749;47.406;18.822;2023-06-26T00:21:23;100267.66;;;17.69;76.54
76994;BME280;66749;47.406;18.822;2023-06-26T00:21:55;100265.03;;;17.69;76.71
76994;BME280;66749;47.406;18.822;2023-06-26T00:22:27;100261.56;;;17.69;76.59
76994;BME280;66749;47.406;18.822;2023-06-26T00:22:59;100263.22;;;17.70;76.51
76994;BME280;66749;47.406;18.822;2023-06-26T00:23:31;100265.03;;;17.69;76.50
76994;BME280;66749;47.406;18.822;2023-06-26T00:24:10;100264.09;;;17.70;76.78
76994;BME280;66749;47.406;18.822;2023-06-26T00:24:42;100258.81;;;17.70;76.74
76994;BME280;66749;47.406;18.822;2023-06-26T00:25:16;100266.00;;;17.68;76.83
76994;BME280;66749;47.406;18.822;2023-06-26T00:25:48;100263.38;;;17.68;76.64
76994;BME280;66749;47.406;18.822;2023-06-26T00:26:20;100263.38;;;17.68;77.04
76994;BME280;66749;47.406;18.822;2023-06-26T00:26:51;100258.19;;;17.67;76.98
76994;BME280;66749;47.406;18.822;2023-06-26T00:27:23;100259.16;;;17.66;76.94
76994;BME280;66749;47.406;18.822;2023-06-26T00:27:55;100263.63;;;17.65;76.79
76994;BME280;66749;47.406;18.822;2023-06-26T00:28:27;100261.13;;;17.64;76.87
76994;BME280;66749;47.406;18.822;2023-06-26T00:28:59;100269.72;;;17.66;76.70
76994;BME280;66749;47.406;18.822;2023-06-26T00:29:31;100266.25;;;17.65;77.16
76994;BME280;66749;47.406;18.822;2023-06-26T00:30:03;100262.09;;;17.63;76.93
76994;BME280;66749;47.406;18.822;2023-06-26T00:30:35;100262.94;;;17.63;76.89
76994;BME280;66749;47.406;18.822;2023-06-26T00:31:07;100265.56;;;17.63;76.89
76994;BME280;66749;47.406;18.822;2023-06-26T00:31:39;100260.28;;;17.63;76.89
76994;BME280;66749;47.406;18.822;2023-06-26T00:32:12;100265.81;;;17.60;77.07
76994;BME280;66749;47.406;18.822;2023-06-26T00:32:43;100262.47;;;17.58;76.88
76994;BME280;66749;47.406;18.822;2023-06-26T00:33:15;100259.84;;;17.58;76.96
76994;BME280;66749;47.406;18.822;2023-06-26T00:33:48;100261.66;;;17.58;76.87
76994;BME280;66749;47.406;18.822;2023-06-26T00:34:19;100272.22;;;17.58;77.06
76994;BME280;66749;47.406;18.822;2023-06-26T00:34:51;100267.06;;;17.56;77.32
76994;BME280;66749;47.406;18.822;2023-06-26T00:35:24;100268.03;;;17.55;77.21
76994;BME280;66749;47.406;18.822;2023-06-26T00:35:56;100257.50;;;17.55;77.27
76994;BME280;66749;47.406;18.822;2023-06-26T00:36:28;100260.81;;;17.57;77.36
76994;BME280;66749;47.406;18.822;2023-06-26T00:37:00;100266.94;;;17.58;77.10
76994;BME280;66749;47.406;18.822;2023-06-26T00:37:32;100268.44;;;17.60;77.13
76994;BME280;66749;47.406;18.822;2023-06-26T00:38:04;100269.72;;;17.56;77.32
76994;BME280;66749;47.406;18.822;2023-06-26T00:38:36;100264.28;;;17.58;76.73
76994;BME280;66749;47.406;18.822;2023-06-26T00:39:08;100267.75;;;17.58;76.96
76994;BME280;66749;47.406;18.822;2023-06-26T00:39:39;100266.09;;;17.57;76.83
76994;BME280;66749;47.406;18.822;2023-06-26T00:40:12;100264.28;;;17.58;76.92
76994;BME280;66749;47.406;18.822;2023-06-26T00:40:44;100260.69;;;17.59;76.87
76994;BME280;66749;47.406;18.822;2023-06-26T00:41:16;100271.38;;;17.57;77.15
76994;BME280;66749;47.406;18.822;2023-06-26T00:41:48;100266.94;;;17.58;77.18
76994;BME280;66749;47.406;18.822;2023-06-26T00:42:20;100262.63;;;17.57;76.90
76994;BME280;66749;47.406;18.822;2023-06-26T00:42:52;100268.72;;;17.57;77.49
76994;BME280;66749;47.406;18.822;2023-06-26T00:43:24;100267.75;;;17.58;77.06
76994;BME280;66749;47.406;18.822;2023-06-26T00:43:55;100266.78;;;17.59;76.89
76994;BME280;66749;47.406;18.822;2023-06-26T00:44:27;100267.50;;;17.61;76.96
76994;BME280;66749;47.406;18.822;2023-06-26T00:44:59;100268.34;;;17.62;77.27
76994;BME280;66749;47.406;18.822;2023-06-26T00:45:31;100263.19;;;17.60;76.60
76994;BME280;66749;47.406;18.822;2023-06-26T00:46:14;100262.22;;;17.61;77.34
76994;BME280;66749;47.406;18.822;2023-06-26T00:46:46;100268.44;;;17.60;76.69
76994;BME280;66749;47.406;18.822;2023-06-26T00:47:18;100265.94;;;17.59;77.09
76994;BME280;66749;47.406;18.822;2023-06-26T00:47:50;100267.75;;;17.58;77.18
76994;BME280;66749;47.406;18.822;2023-06-26T00:48:23;100268.72;;;17.57;77.03
76994;BME280;66749;47.406;18.822;2023-06-26T00:48:55;100265.94;;;17.59;76.87
76994;BME280;66749;47.406;18.822;2023-06-26T00:49:28;100265.81;;;17.60;76.98
76994;BME280;66749;47.406;18.822;2023-06-26T00:50:00;100267.50;;;17.61;76.82
76994;BME280;66749;47.406;18.822;2023-06-26T00:50:32;100269.44;;;17.59;76.85
76994;BME280;66749;47.406;18.822;2023-06-26T00:51:05;100269.44;;;17.59;76.96
76994;BME280;66749;47.406;18.822;2023-06-26T00:51:37;100264.16;;;17.59;76.86
76994;BME280;66749;47.406;18.822;2023-06-26T00:52:09;100267.63;;;17.60;76.70
76994;BME280;66749;47.406;18.822;2023-06-26T00:52:41;100261.66;;;17.58;76.79
76994;BME280;66749;47.406;18.822;2023-06-26T00:53:13;100266.09;;;17.57;76.92
76994;BME280;66749;47.406;18.822;2023-06-26T00:53:45;100261.78;;;17.56;76.60
76994;BME280;66749;47.406;18.822;2023-06-26T00:54:17;100253.03;;;17.56;77.03
76994;BME280;66749;47.406;18.822;2023-06-26T00:54:52;100253.44;;;17.51;76.78
76994;BME280;66749;47.406;18.822;2023-06-26T00:55:24;100258.97;;;17.48;77.05
76994;BME280;66749;47.406;18.822;2023-06-26T00:55:56;100260.50;;;17.51;76.78
76994;BME280;66749;47.406;18.822;2023-06-26T00:56:28;100263.00;;;17.52;76.82
76994;BME280;66749;47.406;18.822;2023-06-26T00:57:00;100255.94;;;17.53;76.72
76994;BME280;66749;47.406;18.822;2023-06-26T00:57:33;100255.22;;;17.51;76.98
76994;BME280;66749;47.406;18.822;2023-06-26T00:58:05;100257.72;;;17.52;76.74
76994;BME280;66749;47.406;18.822;2023-06-26T00:58:37;100261.09;;;17.54;76.73
76994;BME280;66749;47.406;18.822;2023-06-26T00:59:08;100255.81;;;17.54;77.00
76994;BME280;66749;47.406;18.822;2023-06-26T00:59:40;100262.75;;;17.55;76.92
76994;BME280;66749;47.406;18.822;2023-06-26T01:00:13;100252.47;;;17.52;76.76
76994;BME280;66749;47.406;18.822;2023-06-26T01:00:45;100256.91;;;17.52;76.75
76994;BME280;66749;47.406;18.822;2023-06-26T01:01:17;100261.34;;;17.51;77.10
76994;BME280;66749;47.406;18.822;2023-06-26T01:01:49;100252.75;;;17.49;76.98
76994;BME280;66749;47.406;18.822;2023-06-26T01:02:21;100250.94;;;17.50;76.95
76994;BME280;66749;47.406;18.822;2023-06-26T01:02:53;100250.09;;;17.49;76.96
76994;BME280;66749;47.406;18.822;2023-06-26T01:03:25;100250.25;;;17.47;76.82
76994;BME280;66749;47.406;18.822;2023-06-26T01:03:57;100255.22;;;17.51;76.85
76994;BME280;66749;47.406;18.822;2023-06-26T01:04:30;100250.09;;;17.49;76.76
76994;BME280;66749;47.406;18.822;2023-06-26T01:05:05;100244.97;;;17.47;76.86
76994;BME280;66749;47.406;18.822;2023-06-26T01:05:38;100252.44;;;17.42;77.15
76994;BME280;66749;47.406;18.822;2023-06-26T01:06:11;100249.09;;;17.40;76.85
76994;BME280;66749;47.406;18.822;2023-06-26T01:06:48;100243.69;;;17.42;77.23
76994;BME280;66749;47.406;18.822;2023-06-26T01:07:22;100251.59;;;17.42;77.01
76994;BME280;66749;47.406;18.822;2023-06-26T01:07:57;100245.50;;;17.41;77.07
76994;BME280;66749;47.406;18.822;2023-06-26T01:08:30;100246.31;;;17.42;76.92
76994;BME280;66749;47.406;18.822;2023-06-26T01:09:03;100241.31;;;17.39;77.28
76994;BME280;66749;47.406;18.822;2023-06-26T01:09:35;100248.97;;;17.42;76.80
76994;BME280;66749;47.406;18.822;2023-06-26T01:10:07;100244.78;;;17.39;76.91
76994;BME280;66749;47.406;18.822;2023-06-26T01:10:39;100240.50;;;17.38;76.79
76994;BME280;66749;47.406;18.822;2023-06-26T01:11:13;100243.00;;;17.40;76.92
76994;BME280;66749;47.406;18.822;2023-06-26T01:11:46;100239.38;;;17.41;77.02
76994;BME280;66749;47.406;18.822;2023-06-26T01:12:18;100241.03;;;17.42;77.49
76994;BME280;66749;47.406;18.822;2023-06-26T01:12:50;100248.50;;;17.37;77.41
76994;BME280;66749;47.406;18.822;2023-06-26T01:13:22;100241.31;;;17.39;77.11
76994;BME280;66749;47.406;18.822;2023-06-26T01:13:56;100243.81;;;17.40;77.17
76994;BME280;66749;47.406;18.822;2023-06-26T01:14:31;100241.31;;;17.39;76.94
76994;BME280;66749;47.406;18.822;2023-06-26T01:15:04;100240.34;;;17.40;77.11
76994;BME280;66749;47.406;18.822;2023-06-26T01:15:36;100243.81;;;17.40;76.85
76994;BME280;66749;47.406;18.822;2023-06-26T01:16:09;100246.59;;;17.39;76.85
76994;BME280;66749;47.406;18.822;2023-06-26T01:16:43;100241.56;;;17.36;76.70
76994;BME280;66749;47.406;18.822;2023-06-26T01:17:20;100241.56;;;17.36;76.89
76994;BME280;66749;47.406;18.822;2023-06-26T01:17:52;100238.25;;;17.34;76.80
76994;BME280;66749;47.406;18.822;2023-06-26T01:18:26;100235.59;;;17.34;76.39
76994;BME280;66749;47.406;18.822;2023-06-26T01:18:58;100241.84;;;17.33;76.79
76994;BME280;66749;47.406;18.822;2023-06-26T01:19:32;100242.00;;;17.31;76.97
76994;BME280;66749;47.406;18.822;2023-06-26T01:20:06;100242.09;;;17.30;76.69
76994;BME280;66749;47.406;18.822;2023-06-26T01:20:41;100235.44;;;17.26;76.65
76994;BME280;66749;47.406;18.822;2023-06-26T01:21:15;100241.53;;;17.26;76.90
76994;BME280;66749;47.406;18.822;2023-06-26T01:21:49;100246.97;;;17.25;77.10
76994;BME280;66749;47.406;18.822;2023-06-26T01:22:33;100239.28;;;17.22;77.04
76994;BME280;66749;47.406;18.822;2023-06-26T01:23:31;100239.28;;;17.22;76.50
76994;BME280;66749;47.406;18.822;2023-06-26T01:24:15;100247.94;;;17.24;76.88
76994;BME280;66749;47.406;18.822;2023-06-26T01:26:32;100241.81;;;17.23;76.91
76994;BME280;66749;47.406;18.822;2023-06-26T01:26:46;100245.81;;;17.17;77.04
76994;BME280;66749;47.406;18.822;2023-06-26T01:27:21;100238.97;;;17.15;76.98
76994;BME280;66749;47.406;18.822;2023-06-26T01:27:55;100244.38;;;17.13;77.14
76994;BME280;66749;47.406;18.822;2023-06-26T01:28:28;100250.63;;;17.12;77.65
76994;BME280;66749;47.406;18.822;2023-06-26T01:29:02;100251.47;;;17.13;77.46
76994;BME280;66749;47.406;18.822;2023-06-26T01:29:37;100244.53;;;17.12;77.55
76994;BME280;66749;47.406;18.822;2023-06-26T01:30:11;100240.38;;;17.09;77.64
76994;BME280;66749;47.406;18.822;2023-06-26T01:30:45;100242.16;;;17.09;77.88
76994;BME280;66749;47.406;18.822;2023-06-26T01:31:19;100244.66;;;17.10;77.50
76994;BME280;66749;47.406;18.822;2023-06-26T01:31:51;100248.13;;;17.11;77.44
76994;BME280;66749;47.406;18.822;2023-06-26T01:32:23;100245.50;;;17.11;77.42
76994;BME280;66749;47.406;18.822;2023-06-26T01:32:56;100241.06;;;17.11;77.59
76994;BME280;66749;47.406;18.822;2023-06-26T01:33:28;100244.66;;;17.10;77.26
76994;BME280;66749;47.406;18.822;2023-06-26T01:34:01;100243.69;;;17.11;77.74
76994;BME280;66749;47.406;18.822;2023-06-26T01:34:33;100239.25;;;17.12;77.60
76994;BME280;66749;47.406;18.822;2023-06-26T01:35:07;100243.84;;;17.10;77.42
76994;BME280;66749;47.406;18.822;2023-06-26T01:35:40;100242.88;;;17.11;77.25
76994;BME280;66749;47.406;18.822;2023-06-26T01:36:12;100242.03;;;17.10;77.24
76994;BME280;66749;47.406;18.822;2023-06-26T01:36:45;100248.97;;;17.11;77.15
76994;BME280;66749;47.406;18.822;2023-06-26T01:37:17;100242.56;;;17.04;77.51
76994;BME280;66749;47.406;18.822;2023-06-26T01:37:49;100242.56;;;17.04;77.47
76994;BME280;66749;47.406;18.822;2023-06-26T01:38:21;100240.06;;;17.03;77.72
76994;BME280;66749;47.406;18.822;2023-06-26T01:38:57;100242.28;;;17.07;77.52
76994;BME280;66749;47.406;18.822;2023-06-26T01:39:29;100241.44;;;17.07;77.34
76994;BME280;66749;47.406;18.822;2023-06-26T01:40:01;100242.41;;;17.06;77.73
76994;BME280;66749;47.406;18.822;2023-06-26T01:40:33;100241.72;;;17.04;78.18
76994;BME280;66749;47.406;18.822;2023-06-26T01:41:06;100247.13;;;17.02;77.54
76994;BME280;66749;47.406;18.822;2023-06-26T01:41:38;100249.03;;;17.00;78.13
76994;BME280;66749;47.406;18.822;2023-06-26T01:42:10;100243.75;;;17.00;77.92
76994;BME280;66749;47.406;18.822;2023-06-26T01:42:42;100238.38;;;17.02;77.97
76994;BME280;66749;47.406;18.822;2023-06-26T01:44:28;100233.94;;;17.02;77.53
76994;BME280;66749;47.406;18.822;2023-06-26T01:45:15;100245.47;;;17.01;77.64
76994;BME280;66749;47.406;18.822;2023-06-26T01:45:54;100239.47;;;16.99;77.92
76994;BME280;66749;47.406;18.822;2023-06-26T01:47:23;100244.72;;;16.99;77.70
76994;BME280;66749;47.406;18.822;2023-06-26T01:48:01;100248.34;;;16.98;77.89
76994;BME280;66749;47.406;18.822;2023-06-26T01:48:45;100242.94;;;17.00;77.57
76994;BME280;66749;47.406;18.822;2023-06-26T01:49:37;100243.19;;;16.97;78.10
76994;BME280;66749;47.406;18.822;2023-06-26T01:50:12;100243.19;;;16.97;77.92
76994;BME280;66749;47.406;18.822;2023-06-26T01:50:48;100245.69;;;16.98;78.28
76994;BME280;66749;47.406;18.822;2023-06-26T01:51:27;100237.56;;;17.01;78.01
76994;BME280;66749;47.406;18.822;2023-06-26T01:53:37;100246.69;;;16.97;77.79
76994;BME280;66749;47.406;18.822;2023-06-26T01:54:17;100240.69;;;16.95;78.00
76994;BME280;66749;47.406;18.822;2023-06-26T01:55:59;100247.66;;;16.96;78.20
76994;BME280;66749;47.406;18.822;2023-06-26T01:56:33;100246.69;;;16.97;77.72
76994;BME280;66749;47.406;18.822;2023-06-26T01:57:08;100236.25;;;16.96;77.82
76994;BME280;66749;47.406;18.822;2023-06-26T01:57:42;100244.03;;;16.97;78.26
76994;BME280;66749;47.406;18.822;2023-06-26T01:58:14;100249.44;;;16.96;78.15
76994;BME280;66749;47.406;18.822;2023-06-26T01:58:49;100247.66;;;16.96;77.95
76994;BME280;66749;47.406;18.822;2023-06-26T01:59:28;100235.28;;;16.97;77.72
76994;BME280;66749;47.406;18.822;2023-06-26T02:00:03;100244.19;;;16.96;78.25
76994;BME280;66749;47.406;18.822;2023-06-26T02:00:36;100247.78;;;16.95;78.18
76994;BME280;66749;47.406;18.822;2023-06-26T02:01:09;100246.94;;;16.94;78.31
76994;BME280;66749;47.406;18.822;2023-06-26T02:01:41;100237.47;;;16.91;78.42
76994;BME280;66749;47.406;18.822;2023-06-26T02:02:13;100248.63;;;16.95;78.20
76994;BME280;66749;47.406;18.822;2023-06-26T02:02:45;100242.50;;;16.95;77.91
76994;BME280;66749;47.406;18.822;2023-06-26T02:03:17;100239.16;;;16.92;78.06
76994;BME280;66749;47.406;18.822;2023-06-26T02:03:50;100245.28;;;16.93;78.08
76994;BME280;66749;47.406;18.822;2023-06-26T02:04:22;100244.31;;;16.94;78.10
76994;BME280;66749;47.406;18.822;2023-06-26T02:04:54;100245.84;;;16.97;77.80
76994;BME280;66749;47.406;18.822;2023-06-26T02:05:26;100238.06;;;16.95;78.24
76994;BME280;66749;47.406;18.822;2023-06-26T02:05:58;100236.25;;;16.96;78.00
76994;BME280;66749;47.406;18.822;2023-06-26T02:06:29;100248.75;;;16.94;78.26
76994;BME280;66749;47.406;18.822;2023-06-26T02:07:01;100246.34;;;16.90;78.59
76994;BME280;66749;47.406;18.822;2023-06-26T02:07:33;100240.25;;;16.90;78.61
76994;BME280;66749;47.406;18.822;2023-06-26T02:08:05;100238.31;;;16.92;78.30
76994;BME280;66749;47.406;18.822;2023-06-26T02:08:37;100241.69;;;16.94;78.75
76994;BME280;66749;47.406;18.822;2023-06-26T02:09:09;100231.97;;;16.95;78.58
76994;BME280;66749;47.406;18.822;2023-06-26T02:09:41;100241.69;;;16.94;78.17
76994;BME280;66749;47.406;18.822;2023-06-26T02:10:13;100240.69;;;16.95;78.33
76994;BME280;66749;47.406;18.822;2023-06-26T02:10:45;100240.69;;;16.95;78.36
76994;BME280;66749;47.406;18.822;2023-06-26T02:11:17;100241.53;;;16.96;78.63
76994;BME280;66749;47.406;18.822;2023-06-26T02:11:49;100241.69;;;16.94;78.79
76994;BME280;66749;47.406;18.822;2023-06-26T02:12:20;100233.03;;;16.92;78.27
76994;BME280;66749;47.406;18.822;2023-06-26T02:12:52;100238.31;;;16.92;78.26
76994;BME280;66749;47.406;18.822;2023-06-26T02:13:24;100239.56;;;16.88;78.36
76994;BME280;66749;47.406;18.822;2023-06-26T02:13:56;100236.91;;;16.88;78.74
76994;BME280;66749;47.406;18.822;2023-06-26T02:14:28;100236.91;;;16.88;78.28
76994;BME280;66749;47.406;18.822;2023-06-26T02:15:00;100237.75;;;16.88;78.73
76994;BME280;66749;47.406;18.822;2023-06-26T02:15:31;100241.34;;;16.87;78.71
76994;BME280;66749;47.406;18.822;2023-06-26T02:16:03;100241.91;;;16.91;78.48
76994;BME280;66749;47.406;18.822;2023-06-26T02:16:35;100239.41;;;16.89;78.37
76994;BME280;66749;47.406;18.822;2023-06-26T02:17:07;100239.41;;;16.89;78.83
76994;BME280;66749;47.406;18.822;2023-06-26T02:17:40;100238.59;;;16.89;78.96
76994;BME280;66749;47.406;18.822;2023-06-26T02:18:12;100235.25;;;16.87;78.35
76994;BME280;66749;47.406;18.822;2023-06-26T02:18:44;100238.72;;;16.87;78.28
76994;BME280;66749;47.406;18.822;2023-06-26T02:19:15;100242.19;;;16.88;78.49
76994;BME280;66749;47.406;18.822;2023-06-26T02:19:53;100240.38;;;16.88;78.73
76994;BME280;66749;47.406;18.822;2023-06-26T02:20:25;100238.03;;;16.85;78.91
76994;BME280;66749;47.406;18.822;2023-06-26T02:20:57;100239.22;;;16.81;78.85
76994;BME280;66749;47.406;18.822;2023-06-26T02:21:28;100233.81;;;16.83;77.98
76994;BME280;66749;47.406;18.822;2023-06-26T02:22:00;100237.44;;;16.82;78.53
76994;BME280;66749;47.406;18.822;2023-06-26T02:22:32;100241.72;;;16.83;78.27
76994;BME280;66749;47.406;18.822;2023-06-26T02:23:04;100237.69;;;16.79;78.88
76994;BME280;66749;47.406;18.822;2023-06-26T02:23:36;100242.69;;;16.82;78.72
76994;BME280;66749;47.406;18.822;2023-06-26T02:24:09;100242.69;;;16.82;78.68
76994;BME280;66749;47.406;18.822;2023-06-26T02:24:42;100237.81;;;16.77;78.54
76994;BME280;66749;47.406;18.822;2023-06-26T02:25:14;100236.28;;;16.75;78.21
76994;BME280;66749;47.406;18.822;2023-06-26T02:25:46;100235.44;;;16.74;78.68
76994;BME280;66749;47.406;18.822;2023-06-26T02:26:18;100236.53;;;16.72;78.49
76994;BME280;66749;47.406;18.822;2023-06-26T02:26:50;100238.44;;;16.70;78.63
76994;BME280;66749;47.406;18.822;2023-06-26T02:27:22;100233.41;;;16.67;78.85
76994;BME280;66749;47.406;18.822;2023-06-26T02:27:54;100244.22;;;16.63;78.67
76994;BME280;66749;47.406;18.822;2023-06-26T02:28:26;100235.72;;;16.60;79.02
76994;BME280;66749;47.406;18.822;2023-06-26T02:28:58;100241.13;;;16.58;78.91
76994;BME280;66749;47.406;18.822;2023-06-26T02:29:30;100245.44;;;16.59;78.88
76994;BME280;66749;47.406;18.822;2023-06-26T02:30:02;100246.41;;;16.58;78.94
76994;BME280;66749;47.406;18.822;2023-06-26T02:30:34;100246.41;;;16.58;79.01
76994;BME280;66749;47.406;18.822;2023-06-26T02:31:05;100249.03;;;16.58;78.98
76994;BME280;66749;47.406;18.822;2023-06-26T02:31:37;100248.91;;;16.60;78.58
76994;BME280;66749;47.406;18.822;2023-06-26T02:32:09;100249.75;;;16.60;78.96
76994;BME280;66749;47.406;18.822;2023-06-26T02:32:41;100241.13;;;16.58;78.55
76994;BME280;66749;47.406;18.822;2023-06-26T02:33:13;100249.88;;;16.59;79.18
76994;BME280;66749;47.406;18.822;2023-06-26T02:33:45;100248.06;;;16.59;78.66
76994;BME280;66749;47.406;18.822;2023-06-26T02:34:17;100249.59;;;16.62;79.10
76994;BME280;66749;47.406;18.822;2023-06-26T02:34:49;100251.53;;;16.60;79.09
76994;BME280;66749;47.406;18.822;2023-06-26T02:35:23;100243.78;;;16.58;79.28
76994;BME280;66749;47.406;18.822;2023-06-26T02:35:55;100243.50;;;16.61;78.75
76994;BME280;66749;47.406;18.822;2023-06-26T02:36:27;100254.19;;;16.60;79.11
76994;BME280;66749;47.406;18.822;2023-06-26T02:36:59;100251.69;;;16.58;79.19
76994;BME280;66749;47.406;18.822;2023-06-26T02:37:32;100250.00;;;16.57;79.35
76994;BME280;66749;47.406;18.822;2023-06-26T02:38:03;100253.47;;;16.58;78.83
76994;BME280;66749;47.406;18.822;2023-06-26T02:38:36;100251.94;;;16.55;79.00
76994;BME280;66749;47.406;18.822;2023-06-26T02:39:08;100261.50;;;16.56;79.17
76994;BME280;66749;47.406;18.822;2023-06-26T02:39:40;100250.25;;;16.54;79.03
76994;BME280;66749;47.406;18.822;2023-06-26T02:40:11;100251.06;;;16.55;79.00
76994;BME280;66749;47.406;18.822;2023-06-26T02:40:43;100258.91;;;16.45;79.36
76994;BME280;66749;47.406;18.822;2023-06-26T02:41:15;100254.75;;;16.43;79.61
76994;BME280;66749;47.406;18.822;2023-06-26T02:41:47;100257.94;;;16.46;79.47
76994;BME280;66749;47.406;18.822;2023-06-26T02:42:19;100256.06;;;16.48;79.83
76994;BME280;66749;47.406;18.822;2023-06-26T02:42:51;100254.94;;;16.51;79.37
76994;BME280;66749;47.406;18.822;2023-06-26T02:43:23;100259.63;;;16.47;79.58
76994;BME280;66749;47.406;18.822;2023-06-26T02:43:55;100256.97;;;16.47;79.65
76994;BME280;66749;47.406;18.822;2023-06-26T02:44:26;100254.47;;;16.46;79.53
76994;BME280;66749;47.406;18.822;2023-06-26T02:44:58;100251.72;;;16.47;79.69
76994;BME280;66749;47.406;18.822;2023-06-26T02:45:30;100256.97;;;16.47;79.74
76994;BME280;66749;47.406;18.822;2023-06-26T02:46:02;100250.88;;;16.47;79.46
76994;BME280;66749;47.406;18.822;2023-06-26T02:46:34;100251.84;;;16.46;79.34
76994;BME280;66749;47.406;18.822;2023-06-26T02:47:06;100250.03;;;16.46;79.93
76994;BME280;66749;47.406;18.822;2023-06-26T02:47:38;100258.78;;;16.47;79.59
76994;BME280;66749;47.406;18.822;2023-06-26T02:48:11;100252.44;;;16.49;79.93
76994;BME280;66749;47.406;18.822;2023-06-26T02:48:43;100251.72;;;16.47;79.34
76994;BME280;66749;47.406;18.822;2023-06-26T02:49:15;100257.13;;;16.46;80.11
76994;BME280;66749;47.406;18.822;2023-06-26T02:49:47;100253.66;;;16.45;79.48
76994;BME280;66749;47.406;18.822;2023-06-26T02:50:18;100251.16;;;16.44;79.67
76994;BME280;66749;47.406;18.822;2023-06-26T02:50:50;100251.00;;;16.45;79.74
76994;BME280;66749;47.406;18.822;2023-06-26T02:51:22;100255.22;;;16.48;79.93
76994;BME280;66749;47.406;18.822;2023-06-26T02:51:54;100255.44;;;16.45;79.83
76994;BME280;66749;47.406;18.822;2023-06-26T02:52:26;100252.94;;;16.43;79.47
76994;BME280;66749;47.406;18.822;2023-06-26T02:53:01;100254.63;;;16.44;79.63
76994;BME280;66749;47.406;18.822;2023-06-26T02:53:32;100258.91;;;16.45;79.71
76994;BME280;66749;47.406;18.822;2023-06-26T02:54:04;100258.78;;;16.47;79.70
76994;BME280;66749;47.406;18.822;2023-06-26T02:54:36;100249.09;;;16.47;79.95
76994;BME280;66749;47.406;18.822;2023-06-26T02:55:08;100256.16;;;16.47;80.18
76994;BME280;66749;47.406;18.822;2023-06-26T02:55:40;100252.69;;;16.46;79.98
76994;BME280;66749;47.406;18.822;2023-06-26T02:56:12;100259.63;;;16.47;79.51